»·PEaware :: N27JP KCMA-KDLO

N27JP :: KCMA-KDLO

FLIGHT INFORMATION

Flight Status: Arrived
Operator: Privately registered:
United States
More flights under this callsign
Pilot: Weston J. (31543)
Aircraft: BEECH AIRCRAFT BONANZA
(BE36)
More flights by this aircraft type
Origin: KCMA Camarillo
United States
Destination: KDLO Delano Mun
United States
More flights between these airports :: More routes between these airports
Route:
File this flight plan on PilotEdge
Remarks:
Altitude:
(Current/Filed)
10,500ft
Speed:
(Current/Filed)
140kts
Departed: 18-Oct-20 09:06 AM
Arrived: 18-Oct-20 09:57 AM
Distance/Time
Traveled:
6823nm/0:50
Distance/Time
To Go:
Arrived

Flight Plot

Page will automatically refresh every two minutes.


Map Options




Map Legend


Flown Route
Filed Route
Departure Airport
Arrival Airport
Navaid (VOR, NDB)
Fix

Horizontal Profiles

Position Reports

Time Latitude Longitude Heading Altitude Ground
Speed
18-Oct-20 09:04 34.275419 -119.082805 63 3939ft 110kts
18-Oct-20 09:05 34.289004 -119.048996 62 4887ft 113kts
18-Oct-20 09:06 34.302955 -119.014443 61 5760ft 115kts
18-Oct-20 09:07 34.317032 -118.979573 60 6559ft 116kts
18-Oct-20 09:08 34.331328 -118.944159 59 7305ft 118kts
18-Oct-20 09:09 34.345917 -118.907993 57 8035ft 120kts
18-Oct-20 09:10 34.365916 -118.889113 323 8696ft 99kts
18-Oct-20 09:11 34.388857 -118.908103 322 9389ft 100kts
18-Oct-20 09:12 34.411514 -118.927854 322 9959ft 101kts
18-Oct-20 09:13 34.434866 -118.947554 321 10405ft 103kts
18-Oct-20 09:14 34.459411 -118.968382 322 10524ft 116kts
18-Oct-20 09:15 34.485491 -118.990510 322 10509ft 106kts
18-Oct-20 09:16 34.510006 -119.011339 323 10849ft 107kts
18-Oct-20 09:17 34.534513 -119.032187 322 10909ft 108kts
18-Oct-20 09:18 34.559174 -119.053167 322 11624ft 108kts
18-Oct-20 09:19 34.583658 -119.074002 323 11830ft 105kts
18-Oct-20 09:20 34.608581 -119.095213 323 12122ft 109kts
18-Oct-20 09:21 34.632675 -119.115753 323 12494ft 110kts
18-Oct-20 09:22 34.659484 -119.138605 324 12503ft 122kts
18-Oct-20 09:23 34.687732 -119.162716 323 12508ft 124kts
18-Oct-20 09:25 34.716647 -119.187450 323 12505ft 125kts
18-Oct-20 09:26 34.745307 -119.211898 324 12506ft 125kts
18-Oct-20 09:27 34.774683 -119.236309 324 12483ft 125kts
18-Oct-20 09:28 34.803536 -119.259966 324 12515ft 126kts
18-Oct-20 09:29 34.833030 -119.283867 324 12519ft 129kts
18-Oct-20 09:30 34.862565 -119.308252 323 12493ft 123kts
18-Oct-20 09:31 34.891431 -119.332353 324 12532ft 130kts
18-Oct-20 09:32 34.921217 -119.357275 324 12522ft 130kts
18-Oct-20 09:33 34.950283 -119.381814 324 12517ft 126kts
18-Oct-20 09:34 34.979640 -119.406710 323 12510ft 130kts
18-Oct-20 09:35 35.008790 -119.432584 323 12513ft 130kts
18-Oct-20 09:36 35.037931 -119.458585 323 12506ft 128kts
18-Oct-20 09:37 35.067644 -119.480768 335 12044ft 127kts
18-Oct-20 09:38 35.100983 -119.474036 22 10405ft 134kts
18-Oct-20 09:39 35.134409 -119.464146 19 8780ft 130kts
18-Oct-20 09:40 35.166876 -119.445730 20 7264ft 127kts
18-Oct-20 09:41 35.198980 -119.427592 21 5836ft 122kts
18-Oct-20 09:41 35.222807 -119.414153 22 5526ft 130kts
18-Oct-20 09:43 35.265421 -119.390050 22 5495ft 150kts
18-Oct-20 09:43 35.297266 -119.371990 22 5499ft 151kts
18-Oct-20 09:45 35.341828 -119.346562 22 5496ft 151kts
18-Oct-20 09:45 35.373707 -119.328337 22 5497ft 151kts
18-Oct-20 09:46 35.412034 -119.306266 22 5495ft 151kts
18-Oct-20 09:47 35.450270 -119.284323 22 5494ft 152kts
18-Oct-20 09:48 35.487854 -119.263508 22 3869ft 143kts
18-Oct-20 09:49 35.524915 -119.243989 22 3501ft 157kts
18-Oct-20 09:50 35.565493 -119.222732 22 3491ft 159kts
18-Oct-20 09:51 35.604661 -119.202178 22 3488ft 133kts
18-Oct-20 09:52 35.634871 -119.194282 338 3494ft 103kts
18-Oct-20 09:53 35.665926 -119.201945 345 2709ft 118kts
18-Oct-20 09:54 35.695680 -119.212958 340 1578ft 107kts
18-Oct-20 09:55 35.721587 -119.225279 335 734ft 96kts
18-Oct-20 09:56 35.741924 -119.234822 339 315ft 27kts
18-Oct-20 09:57 35.745132 -119.238221 245 317ft 2kts
18-Oct-20 09:58 35.745131 -119.238222 245 317ft 0kts
18-Oct-20 09:59 0.000408 0.013975 359 3ft 0kts
18-Oct-20 10:00 0.000408 0.013975 359 3ft 0kts
18-Oct-20 10:01 0.000408 0.013975 359 3ft 0kts
18-Oct-20 10:02 0.000408 0.013975 359 3ft 0kts
18-Oct-20 10:03 0.000408 0.013975 359 3ft 0kts
18-Oct-20 10:04 0.000408 0.013975 359 3ft 0kts
18-Oct-20 10:05 0.000408 0.013975 359 3ft 0kts
18-Oct-20 10:06 0.000408 0.013975 359 3ft 0kts
18-Oct-20 10:07 0.000408 0.013975 359 3ft 0kts
18-Oct-20 10:08 0.000408 0.013975 359 3ft 0kts

Navigation Log

Ident Type
Flight plan parsing failed, navigation log unavailable